Terminal Aerodrome Forecast
Issued by NWS

Home | Current Version | Previous Version | Text Only | Print | Product List | Glossary On
Versions: 1 2 3 4 5 6 7 8 9 10 11 12 13 14 15 16 17 18 19 20 21
000
FTUS43 KDTX 031738
TAFMBS
TAF
KMBS 031738Z 0318/0418 28006KT 5SM SHRA BKN035 BKN050
      TEMPO 0318/0321 1SM TSRA BKN035CB BKN050
     FM040100 VRB03KT P6SM SCT045 BKN100
     FM040500 VRB03KT 4SM BR SCT100
     FM040700 00000KT 3/4SM BR SCT100
     FM041300 23003KT 6SM BR SCT250
     FM041600 23005KT P6SM BKN035=

USA.gov is the U.S. government's official web portal to all federal, state and local government web resources and services.